createdAt,value
2023-08-05T00:00:17.858Z,101042.13
2023-08-05T00:02:44.482Z,101034.44
2023-08-05T00:05:11.036Z,101047.13
2023-08-05T00:07:37.607Z,101041.91
2023-08-05T00:10:04.476Z,101037.59
2023-08-05T00:12:31.089Z,101023.41
2023-08-05T00:14:57.617Z,101037.16
2023-08-05T00:17:24.392Z,101042.31
2023-08-05T00:19:51.681Z,101048.25
2023-08-05T00:22:18.348Z,101051.53
2023-08-05T00:24:44.886Z,101038.47
2023-08-05T00:27:11.444Z,101061.03
2023-08-05T00:29:37.993Z,101061.88
2023-08-05T00:32:04.889Z,101052.44
2023-08-05T00:34:31.484Z,101049.66
2023-08-05T00:36:58.049Z,101052.22
2023-08-05T00:39:24.579Z,101034.69
2023-08-05T00:41:51.081Z,101044.31
2023-08-05T00:44:17.642Z,101044.38
2023-08-05T00:46:44.196Z,101049.53
2023-08-05T00:49:12.161Z,101029.50
2023-08-05T00:51:39.961Z,101049.53
2023-08-05T00:54:07.272Z,101049.47
2023-08-05T00:56:34.399Z,101039.19
2023-08-05T00:59:01.211Z,101044.56
2023-08-05T01:01:27.975Z,101041.16
2023-08-05T01:03:54.805Z,101036.78
2023-08-05T01:06:22.549Z,101048.09
2023-08-05T01:08:50.300Z,101051.59
2023-08-05T01:11:17.435Z,101047.31
2023-08-05T01:13:45.232Z,101056.50
2023-08-05T01:16:12.124Z,101053.19
2023-08-05T01:18:40.749Z,101030.69
2023-08-05T01:21:36.237Z,101028.81
2023-08-05T01:24:30.440Z,101042.78
2023-08-05T01:26:57.990Z,101054.88
2023-08-05T01:29:24.841Z,101050.53
2023-08-05T01:31:52.767Z,101058.38
2023-08-05T01:34:19.492Z,101054.03
2023-08-05T01:36:46.235Z,101055.06
2023-08-05T01:39:13.004Z,101048.25
2023-08-05T01:41:39.777Z,101052.88
2023-08-05T01:44:06.524Z,101054.66
2023-08-05T01:46:33.304Z,101040.13
2023-08-05T01:49:00.069Z,101046.19
2023-08-05T01:51:26.850Z,101047.94
2023-08-05T01:53:53.777Z,101047.06
2023-08-05T01:56:20.575Z,101044.50
2023-08-05T01:58:47.301Z,101042.78
2023-08-05T02:01:14.111Z,101048.00
2023-08-05T02:03:41.109Z,101040.41
2023-08-05T02:06:07.905Z,101020.66
2023-08-05T02:08:34.627Z,101037.13
2023-08-05T02:11:01.445Z,101030.28
2023-08-05T02:13:28.192Z,101031.94
2023-08-05T02:15:55.036Z,101038.78
2023-08-05T02:18:21.800Z,101017.84
2023-08-05T02:20:48.496Z,101048.81
2023-08-05T02:23:15.197Z,101049.50
2023-08-05T02:25:41.933Z,101046.06
2023-08-05T02:28:08.663Z,101055.41
2023-08-05T02:30:35.461Z,101057.88
2023-08-05T02:33:02.271Z,101059.44
2023-08-05T02:35:29.074Z,101055.25
2023-08-05T02:37:55.818Z,101054.41
2023-08-05T02:40:22.585Z,101057.03
2023-08-05T02:42:49.308Z,101050.06
2023-08-05T02:45:16.065Z,101050.81
2023-08-05T02:47:42.818Z,101039.47
2023-08-05T02:50:10.866Z,101054.97
2023-08-05T02:52:37.682Z,101053.19
2023-08-05T02:55:04.838Z,101053.94
2023-08-05T02:57:31.598Z,101051.34
2023-08-05T02:59:58.282Z,101053.75
2023-08-05T03:02:25.058Z,101048.47
2023-08-05T03:04:51.829Z,101044.00
2023-08-05T03:07:18.558Z,101050.91
2023-08-05T03:09:45.368Z,101030.03
2023-08-05T03:12:12.160Z,101026.75
2023-08-05T03:14:38.878Z,101040.44
2023-08-05T03:17:05.733Z,101045.53
2023-08-05T03:19:32.530Z,101039.41
2023-08-05T03:21:59.141Z,101030.03
2023-08-05T03:24:25.665Z,101036.06
2023-08-05T03:26:52.433Z,101040.31
2023-08-05T03:29:21.316Z,101035.13
2023-08-05T03:31:48.084Z,101043.66
2023-08-05T03:34:14.692Z,101032.31
2023-08-05T03:36:41.219Z,101035.03
2023-08-05T03:39:07.876Z,101030.78
2023-08-05T03:41:35.409Z,101035.13
2023-08-05T03:44:04.812Z,101022.28
2023-08-05T03:46:31.332Z,101025.81
2023-08-05T03:48:57.860Z,101020.72
2023-08-05T03:51:24.489Z,101013.88
2023-08-05T03:53:51.078Z,101015.59
2023-08-05T03:56:20.295Z,101011.38
2023-08-05T03:58:48.037Z,101013.00
2023-08-05T04:01:18.166Z,101017.38
2023-08-05T04:03:45.268Z,101006.22
2023-08-05T04:06:13.137Z,100999.53
2023-08-05T04:08:40.590Z,100995.28
2023-08-05T04:11:07.215Z,100979.00
2023-08-05T04:13:34.358Z,100995.47
2023-08-05T04:16:04.718Z,100989.63
2023-08-05T04:18:33.100Z,100988.78
2023-08-05T04:20:59.695Z,100985.47
2023-08-05T04:23:27.774Z,100992.25
2023-08-05T04:25:54.377Z,100982.94
2023-08-05T04:28:20.889Z,100985.56
2023-08-05T04:30:49.593Z,100988.09
2023-08-05T04:33:16.113Z,100982.09
2023-08-05T04:35:50.271Z,100995.75
2023-08-05T04:38:17.483Z,100988.97
2023-08-05T04:40:44.062Z,100991.59
2023-08-05T04:43:10.719Z,100984.84
2023-08-05T04:45:37.370Z,100983.31
2023-08-05T04:48:05.445Z,100988.50
2023-08-05T04:50:32.086Z,100991.25
2023-08-05T04:52:58.625Z,100992.34
2023-08-05T04:55:25.204Z,100988.84
2023-08-05T04:57:56.073Z,100992.63
2023-08-05T05:00:22.816Z,100991.09
2023-08-05T05:02:49.962Z,100986.78
2023-08-05T05:05:16.633Z,100983.69
2023-08-05T05:07:43.161Z,100989.75
2023-08-05T05:10:10.076Z,100991.56
2023-08-05T05:12:36.802Z,100978.50
2023-08-05T05:15:03.686Z,100993.44
2023-08-05T05:17:37.454Z,100996.81
2023-08-05T05:20:05.746Z,100996.97
2023-08-05T05:22:33.701Z,100993.94
2023-08-05T05:25:00.733Z,101003.44
2023-08-05T05:27:27.533Z,100998.47
2023-08-05T05:29:54.294Z,101009.03
2023-08-05T05:32:21.146Z,100990.25
2023-08-05T05:34:47.991Z,101005.28
2023-08-05T05:37:14.755Z,101008.81
2023-08-05T05:39:42.182Z,101000.47
2023-08-05T05:42:10.161Z,101008.38
2023-08-05T05:44:39.272Z,101008.34
2023-08-05T05:47:08.423Z,101018.06
2023-08-05T05:49:36.081Z,101010.25
2023-08-05T05:52:02.689Z,101016.34
2023-08-05T05:54:29.240Z,101033.59
2023-08-05T05:59:22.881Z,101031.16
2023-08-05T06:01:49.478Z,101034.97
2023-08-05T06:04:16.140Z,101032.75
2023-08-05T06:06:42.705Z,101033.09
2023-08-05T06:09:09.231Z,101038.53
2023-08-05T06:11:36.016Z,101030.25
2023-08-05T06:14:02.611Z,101011.34
2023-08-05T06:16:29.229Z,101012.56
2023-08-05T06:18:55.827Z,101030.19
2023-08-05T06:21:23.888Z,101012.97
2023-08-05T06:23:50.706Z,101040.09
2023-08-05T06:26:17.338Z,101047.16
2023-08-05T06:28:43.991Z,101038.78
2023-08-05T06:31:10.562Z,101033.75
2023-08-05T06:33:37.120Z,101041.00
2023-08-05T06:36:03.865Z,101038.66
2023-08-05T06:38:30.495Z,101038.00
2023-08-05T06:40:57.032Z,101031.34
2023-08-05T06:43:26.378Z,101033.25
2023-08-05T06:45:53.635Z,101031.00
2023-08-05T06:48:20.312Z,101026.06
2023-08-05T06:50:46.896Z,101015.00
2023-08-05T06:53:13.476Z,101017.69
2023-08-05T06:55:40.036Z,101019.63
2023-08-05T06:58:06.661Z,101015.28
2023-08-05T07:00:33.298Z,101013.59
2023-08-05T07:02:59.950Z,101021.59
2023-08-05T07:05:26.745Z,101016.66
2023-08-05T07:07:55.757Z,101021.94
2023-08-05T07:10:22.827Z,101012.59
2023-08-05T07:12:49.369Z,101017.91
2023-08-05T07:15:15.935Z,101024.16
2023-08-05T07:17:42.872Z,101021.72
2023-08-05T07:20:10.043Z,101022.63
2023-08-05T07:22:36.615Z,101015.84
2023-08-05T07:25:03.815Z,101012.59
2023-08-05T07:27:30.377Z,101013.69
2023-08-05T07:29:56.874Z,101009.66
2023-08-05T07:32:23.637Z,100993.50
2023-08-05T07:34:54.787Z,101004.81
2023-08-05T07:37:21.437Z,100998.84
2023-08-05T07:39:49.416Z,100997.50
2023-08-05T07:42:16.474Z,100988.38
2023-08-05T07:44:43.717Z,100989.63
2023-08-05T07:47:10.641Z,100989.09
2023-08-05T07:49:38.401Z,100972.03
2023-08-05T07:52:07.638Z,100972.25
2023-08-05T07:54:34.826Z,100964.78
2023-08-05T07:57:01.547Z,100960.53
2023-08-05T07:59:28.785Z,100959.84
2023-08-05T08:01:56.477Z,100951.31
2023-08-05T08:04:23.460Z,100956.59
2023-08-05T08:06:50.526Z,100950.66
2023-08-05T08:09:17.262Z,100945.47
2023-08-05T08:11:44.183Z,100946.41
2023-08-05T08:14:10.960Z,100942.94
2023-08-05T08:16:37.757Z,100936.94
2023-08-05T08:19:05.744Z,100942.28
2023-08-05T08:21:32.672Z,100935.72
2023-08-05T08:23:59.489Z,100938.72
2023-08-05T08:26:26.399Z,100939.09
2023-08-05T08:28:53.262Z,100943.88
2023-08-05T08:31:20.052Z,100943.75
2023-08-05T08:33:46.786Z,100945.19
2023-08-05T08:36:13.547Z,100946.38
2023-08-05T08:38:40.495Z,100936.78
2023-08-05T08:41:09.280Z,100933.19
2023-08-05T08:43:36.128Z,100931.34
2023-08-05T08:46:03.594Z,100935.75
2023-08-05T08:48:31.086Z,100939.34
2023-08-05T08:50:59.664Z,100936.78
2023-08-05T08:53:27.321Z,100935.97
2023-08-05T08:55:54.509Z,100928.03
2023-08-05T08:58:21.417Z,100921.69
2023-08-05T09:00:48.528Z,100929.09
2023-08-05T09:03:16.235Z,100934.97
2023-08-05T09:05:47.047Z,100930.91
2023-08-05T09:08:14.249Z,100918.22
2023-08-05T09:10:41.053Z,100919.22
2023-08-05T09:13:08.567Z,100918.28
2023-08-05T09:15:38.311Z,100934.59
2023-08-05T09:18:06.818Z,100929.31
2023-08-05T09:20:33.798Z,100924.97
2023-08-05T09:23:02.852Z,100926.00
2023-08-05T09:25:31.863Z,100926.56
2023-08-05T09:28:01.215Z,100928.84
2023-08-05T09:30:28.450Z,100918.94
2023-08-05T09:32:55.518Z,100914.00
2023-08-05T09:35:22.724Z,100909.88
2023-08-05T09:37:50.876Z,100909.84
2023-08-05T09:40:19.376Z,100900.28
2023-08-05T09:42:50.073Z,100897.59
2023-08-05T09:45:18.651Z,100901.00
2023-08-05T09:47:53.859Z,100899.25
2023-08-05T09:50:21.711Z,100906.19
2023-08-05T09:52:52.664Z,100901.81
2023-08-05T09:55:22.459Z,100892.25
2023-08-05T09:57:50.053Z,100884.53
2023-08-05T10:00:16.975Z,100874.22
2023-08-05T10:02:47.944Z,100882.78
2023-08-05T10:05:14.943Z,100885.06
2023-08-05T10:07:42.714Z,100874.59
2023-08-05T10:10:18.375Z,100873.91
2023-08-05T10:12:50.355Z,100872.63
2023-08-05T10:15:24.133Z,100856.75
2023-08-05T10:17:51.080Z,100858.78
2023-08-05T10:20:17.999Z,100852.09
2023-08-05T10:23:02.744Z,100840.22
2023-08-05T10:25:46.630Z,100833.34
2023-08-05T10:28:25.394Z,100826.44
2023-08-05T10:30:54.903Z,100820.41
2023-08-05T10:33:22.124Z,100830.75
2023-08-05T10:35:50.609Z,100821.28
2023-08-05T10:38:21.017Z,100822.09
2023-08-05T10:41:01.796Z,100814.31
2023-08-05T10:43:31.514Z,100810.88
2023-08-05T10:46:08.276Z,100814.38
2023-08-05T10:48:43.301Z,100812.63
2023-08-05T10:51:14.013Z,100820.41
2023-08-05T10:53:44.196Z,100814.38
2023-08-05T10:56:13.119Z,100808.31
2023-08-05T10:58:49.036Z,100807.41
2023-08-05T11:01:16.574Z,100804.75
2023-08-05T11:03:46.375Z,100799.47
2023-08-05T11:06:14.809Z,100802.81
2023-08-05T11:08:44.421Z,100795.72
2023-08-05T11:11:14.550Z,100811.09
2023-08-05T11:13:43.705Z,100810.13
2023-08-05T11:16:12.285Z,100803.19
2023-08-05T11:18:40.814Z,100805.94
2023-08-05T11:21:14.164Z,100799.25
2023-08-05T11:23:46.514Z,100787.44
2023-08-05T11:26:13.544Z,100769.50
2023-08-05T11:28:47.480Z,100769.53
2023-08-05T11:31:24.948Z,100781.56
2023-08-05T11:33:53.327Z,100788.31
2023-08-05T11:36:25.578Z,100781.34
2023-08-05T11:38:52.651Z,100772.75
2023-08-05T11:41:19.370Z,100762.47
2023-08-05T11:43:46.217Z,100769.41
2023-08-05T11:46:26.772Z,100762.59
2023-08-05T11:49:08.457Z,100760.91
2023-08-05T11:51:44.891Z,100766.06
2023-08-05T11:54:11.644Z,100765.22
2023-08-05T11:56:38.377Z,100758.31
2023-08-05T11:59:05.077Z,100754.84
2023-08-05T12:01:36.647Z,100755.72
2023-08-05T12:04:08.502Z,100757.44
2023-08-05T12:06:35.170Z,100762.63
2023-08-05T12:09:01.884Z,100752.25
2023-08-05T12:11:28.620Z,100742.78
2023-08-05T12:13:55.324Z,100750.53
2023-08-05T12:16:22.090Z,100752.28
2023-08-05T12:18:49.323Z,100751.41
2023-08-05T12:21:16.201Z,100749.69
2023-08-05T12:23:43.170Z,100744.50
2023-08-05T12:26:11.292Z,100744.47
2023-08-05T12:28:38.278Z,100740.19
2023-08-05T12:31:05.601Z,100738.47
2023-08-05T12:33:32.385Z,100735.03
2023-08-05T12:35:59.130Z,100738.47
2023-08-05T12:38:25.881Z,100731.50
2023-08-05T12:40:52.558Z,100709.91
2023-08-05T12:43:19.233Z,100725.41
2023-08-05T12:45:46.080Z,100721.00
2023-08-05T12:48:12.862Z,100723.56
2023-08-05T12:50:39.556Z,100709.81
2023-08-05T12:53:06.442Z,100699.59
2023-08-05T12:55:33.038Z,100704.00
2023-08-05T12:57:59.603Z,100681.59
2023-08-05T13:00:26.219Z,100678.16
2023-08-05T13:02:52.802Z,100679.00
2023-08-05T13:05:19.427Z,100676.38
2023-08-05T13:07:46.320Z,100672.94
2023-08-05T13:10:12.977Z,100674.69
2023-08-05T13:12:39.491Z,100663.47
2023-08-05T13:15:06.543Z,100672.91
2023-08-05T13:17:33.106Z,100672.88
2023-08-05T13:19:59.662Z,100663.38
2023-08-05T13:22:26.155Z,100658.22
2023-08-05T13:24:52.763Z,100663.41
2023-08-05T13:27:22.326Z,100659.97
2023-08-05T13:29:48.851Z,100643.56
2023-08-05T13:32:15.521Z,100647.03
2023-08-05T13:34:43.221Z,100645.28
2023-08-05T13:37:09.741Z,100654.78
2023-08-05T13:39:36.376Z,100641.00
2023-08-05T13:42:03.372Z,100636.69
2023-08-05T13:44:30.056Z,100628.06
2023-08-05T13:46:56.647Z,100634.97
2023-08-05T13:49:23.328Z,100635.00
2023-08-05T13:51:52.182Z,100637.56
2023-08-05T13:54:19.252Z,100631.53
2023-08-05T13:56:45.771Z,100622.91
2023-08-05T13:59:12.300Z,100620.34
2023-08-05T14:01:38.778Z,100615.16
2023-08-05T14:04:05.300Z,100621.22
2023-08-05T14:06:31.823Z,100617.78
2023-08-05T14:09:02.029Z,100608.31
2023-08-05T14:11:28.651Z,100600.56
2023-08-05T14:13:55.247Z,100604.88
2023-08-05T14:16:21.760Z,100599.69
2023-08-05T14:18:48.315Z,100600.56
2023-08-05T14:21:15.907Z,100591.06
2023-08-05T14:23:42.420Z,100580.69
2023-08-05T14:26:09.063Z,100589.34
2023-08-05T14:28:35.630Z,100586.75
2023-08-05T14:31:08.492Z,100581.56
2023-08-05T14:33:35.062Z,100578.16
2023-08-05T14:36:01.606Z,100579.00
2023-08-05T14:38:28.167Z,100569.53
2023-08-05T14:40:54.719Z,100560.94
2023-08-05T14:43:21.278Z,100560.03
2023-08-05T14:45:47.817Z,100554.03
2023-08-05T14:48:14.441Z,100556.56
2023-08-05T14:50:41.109Z,100548.81
2023-08-05T14:53:07.885Z,100546.25
2023-08-05T14:55:34.651Z,100541.09
2023-08-05T14:58:01.570Z,100536.75
2023-08-05T15:00:28.392Z,100532.47
2023-08-05T15:02:55.616Z,100525.63
2023-08-05T15:05:22.843Z,100519.59
2023-08-05T15:07:50.074Z,100522.19
2023-08-05T15:10:16.891Z,100524.78
2023-08-05T15:12:43.688Z,100517.91
2023-08-05T15:15:10.663Z,100521.34
2023-08-05T15:17:41.694Z,100506.66
2023-08-05T15:20:10.401Z,100517.88
2023-08-05T15:22:37.256Z,100511.84
2023-08-05T15:25:04.567Z,100493.78
2023-08-05T15:27:31.109Z,100480.84
2023-08-05T15:29:58.715Z,100499.81
2023-08-05T15:32:25.744Z,100493.78
2023-08-05T15:34:52.480Z,100480.88
2023-08-05T15:37:19.033Z,100491.22
2023-08-05T15:39:45.562Z,100486.91
2023-08-05T15:42:12.107Z,100480.91
2023-08-05T15:44:38.675Z,100484.31
2023-08-05T15:47:05.653Z,100486.03
2023-08-05T15:49:32.284Z,100477.47
2023-08-05T15:51:59.118Z,100481.75
2023-08-05T15:54:25.819Z,100480.03
2023-08-05T15:56:52.489Z,100481.72
2023-08-05T15:59:19.092Z,100475.72
2023-08-05T16:01:45.688Z,100474.84
2023-08-05T16:04:12.455Z,100479.16
2023-08-05T16:06:39.217Z,100483.47
2023-08-05T16:09:06.926Z,100466.25
2023-08-05T16:11:34.239Z,100475.75
2023-08-05T16:14:00.877Z,100470.56
2023-08-05T16:16:27.481Z,100470.56
2023-08-05T16:18:54.054Z,100470.56
2023-08-05T16:21:22.594Z,100471.41
2023-08-05T16:23:54.400Z,100464.53
2023-08-05T16:26:22.740Z,100462.81
2023-08-05T16:28:49.898Z,100463.69
2023-08-05T16:31:20.758Z,100467.13
2023-08-05T16:33:48.018Z,100469.72
2023-08-05T16:36:14.986Z,100467.09
2023-08-05T16:38:44.739Z,100452.47
2023-08-05T16:41:12.143Z,100468.00
2023-08-05T16:43:39.895Z,100456.78
2023-08-05T16:46:08.039Z,100461.94
2023-08-05T16:48:35.603Z,100459.38
2023-08-05T16:51:02.192Z,100456.78
2023-08-05T16:53:31.956Z,100458.50
2023-08-05T16:56:01.776Z,100445.63
2023-08-05T16:58:28.394Z,100444.69
2023-08-05T17:00:55.991Z,100444.72
2023-08-05T17:03:23.069Z,100446.44
2023-08-05T17:05:55.707Z,100441.28
2023-08-05T17:08:22.383Z,100440.41
2023-08-05T17:10:48.971Z,100433.50
2023-08-05T17:13:15.643Z,100426.63
2023-08-05T17:15:46.175Z,100437.81
2023-08-05T17:18:13.828Z,100426.59
2023-08-05T17:20:41.510Z,100431.75
2023-08-05T17:23:08.697Z,100433.47
2023-08-05T17:25:41.174Z,100423.13
2023-08-05T17:28:08.505Z,100435.16
2023-08-05T17:30:35.658Z,100411.06
2023-08-05T17:33:02.883Z,100413.63
2023-08-05T17:35:31.203Z,100422.22
2023-08-05T17:38:00.706Z,100405.81
2023-08-05T17:40:30.181Z,100400.63
2023-08-05T17:42:57.199Z,100411.81
2023-08-05T17:45:23.976Z,100405.78
2023-08-05T17:47:50.863Z,100413.50
2023-08-05T17:50:17.745Z,100389.38
2023-08-05T17:52:44.503Z,100404.84
2023-08-05T17:55:11.254Z,100405.69
2023-08-05T17:57:38.223Z,100397.91
2023-08-05T18:00:05.824Z,100397.94
2023-08-05T18:02:32.633Z,100399.66
2023-08-05T18:04:59.389Z,100377.22
2023-08-05T18:07:26.106Z,100393.56
2023-08-05T18:09:52.851Z,100391.81
2023-08-05T18:12:19.601Z,100391.78
2023-08-05T18:14:47.983Z,100387.53
2023-08-05T18:17:15.201Z,100387.50
2023-08-05T18:19:41.980Z,100384.91
2023-08-05T18:22:08.674Z,100389.19
2023-08-05T18:24:35.405Z,100389.16
2023-08-05T18:27:02.180Z,100389.13
2023-08-05T18:29:28.976Z,100381.34
2023-08-05T18:31:55.686Z,100388.25
2023-08-05T18:34:22.617Z,100391.63
2023-08-05T18:36:49.188Z,100377.84
2023-08-05T18:39:15.696Z,100374.41
2023-08-05T18:41:42.245Z,100394.22
2023-08-05T18:44:08.752Z,100387.34
2023-08-05T18:46:35.291Z,100364.06
2023-08-05T18:49:04.083Z,100374.34
2023-08-05T18:51:30.607Z,100350.16
2023-08-05T18:53:57.174Z,100376.88
2023-08-05T18:56:23.706Z,100382.00
2023-08-05T18:58:53.585Z,100383.63
2023-08-05T19:01:20.867Z,100370.72
2023-08-05T19:03:48.357Z,100376.72
2023-08-05T19:06:15.174Z,100365.50
2023-08-05T19:08:41.746Z,100371.47
2023-08-05T19:11:17.080Z,100374.88
2023-08-05T19:13:43.955Z,100392.91
2023-08-05T19:16:10.771Z,100392.88
2023-08-05T19:18:37.394Z,100398.03
2023-08-05T19:21:05.845Z,100381.72
2023-08-05T19:23:33.438Z,100393.75
2023-08-05T19:26:04.309Z,100381.72
2023-08-05T19:28:31.061Z,100384.28
2023-08-05T19:30:59.632Z,100368.75
2023-08-05T19:33:26.270Z,100371.41
2023-08-05T19:35:52.771Z,100379.09
2023-08-05T19:38:19.338Z,100385.94
2023-08-05T19:40:45.929Z,100384.22
2023-08-05T19:43:12.468Z,100370.44
2023-08-05T19:45:39.036Z,100381.59
2023-08-05T19:48:05.778Z,100370.38
2023-08-05T19:50:32.330Z,100372.91
2023-08-05T19:52:58.885Z,100376.31
2023-08-05T19:55:28.289Z,100366.81
2023-08-05T19:57:54.992Z,100375.50
2023-08-05T20:00:21.518Z,100377.13
2023-08-05T20:02:48.121Z,100377.97
2023-08-05T20:05:14.749Z,100372.72
2023-08-05T20:07:41.382Z,100356.31
2023-08-05T20:10:08.877Z,100377.00
2023-08-05T20:12:35.494Z,100374.44
2023-08-05T20:15:02.199Z,100375.25
2023-08-05T20:17:28.791Z,100381.22
2023-08-05T20:19:55.386Z,100370.91
2023-08-05T20:22:21.945Z,100381.19
2023-08-05T20:24:48.455Z,100394.78
2023-08-05T20:27:15.004Z,100383.44
2023-08-05T20:29:41.758Z,100421.03
2023-08-05T20:32:08.544Z,100426.09
2023-08-05T20:34:35.333Z,100413.94
2023-08-05T20:37:02.091Z,100420.81
2023-08-05T20:39:28.795Z,100403.63
2023-08-05T20:41:55.512Z,100404.44
2023-08-05T20:44:22.276Z,100420.84
2023-08-05T20:46:49.015Z,100404.41
2023-08-05T20:49:15.750Z,100404.41
2023-08-05T20:51:42.958Z,100400.97
2023-08-05T20:54:10.586Z,100422.44
2023-08-05T20:56:37.358Z,100424.13
2023-08-05T20:59:04.217Z,100423.22
2023-08-05T21:01:30.994Z,100418.84
2023-08-05T21:03:57.883Z,100427.38
2023-08-05T21:06:24.731Z,100423.00
2023-08-05T21:08:51.569Z,100432.38
2023-08-05T21:11:18.314Z,100426.22
2023-08-05T21:13:46.809Z,100421.06
2023-08-05T21:16:13.354Z,100426.19
2023-08-05T21:18:39.948Z,100411.41
2023-08-05T21:21:06.532Z,100422.63
2023-08-05T21:23:33.321Z,100432.78
2023-08-05T21:25:59.872Z,100441.19
2023-08-05T21:28:26.485Z,100442.75
2023-08-05T21:30:58.411Z,100437.41
2023-08-05T21:33:25.479Z,100448.38
2023-08-05T21:35:52.310Z,100442.16
2023-08-05T21:38:18.980Z,100424.13
2023-08-05T21:40:47.007Z,100432.63
2023-08-05T21:43:17.202Z,100430.75
2023-08-05T21:45:47.481Z,100418.66
2023-08-05T21:48:14.722Z,100416.03
2023-08-05T21:50:41.834Z,100405.69
2023-08-05T21:53:09.148Z,100403.84
2023-08-05T21:55:36.496Z,100397.84
2023-08-05T21:58:04.219Z,100398.53
2023-08-05T22:00:31.084Z,100379.53
2023-08-05T22:02:57.941Z,100381.09
2023-08-05T22:05:24.916Z,100395.59
2023-08-05T22:07:51.439Z,100398.09
2023-08-05T22:10:18.103Z,100398.94
2023-08-05T22:12:44.713Z,100404.06
2023-08-05T22:15:11.671Z,100396.28
2023-08-05T22:17:38.366Z,100400.56
2023-08-05T22:20:05.497Z,100397.84
2023-08-05T22:22:32.009Z,100392.53
2023-08-05T22:24:58.584Z,100394.16
2023-08-05T22:27:25.174Z,100389.84
2023-08-05T22:29:51.848Z,100384.75
2023-08-05T22:32:18.619Z,100382.91
2023-08-05T22:34:45.264Z,100381.97
2023-08-05T22:37:11.911Z,100377.69
2023-08-05T22:39:38.949Z,100358.00
2023-08-05T22:42:06.422Z,100368.31
2023-08-05T22:44:33.682Z,100358.94
2023-08-05T22:47:00.350Z,100356.34
2023-08-05T22:49:27.104Z,100351.97
2023-08-05T22:51:53.969Z,100358.84
2023-08-05T22:54:20.771Z,100330.41
2023-08-05T22:56:47.365Z,100338.31
2023-08-05T22:59:14.328Z,100336.59
2023-08-05T23:01:41.012Z,100337.47
2023-08-05T23:04:08.214Z,100328.84
2023-08-05T23:06:34.993Z,100329.00
2023-08-05T23:09:01.872Z,100326.44
2023-08-05T23:11:28.492Z,100310.13
2023-08-05T23:13:55.248Z,100314.41
2023-08-05T23:16:22.044Z,100308.47
2023-08-05T23:18:49.689Z,100305.91
2023-08-05T23:21:17.540Z,100300.75
2023-08-05T23:23:44.443Z,100295.63
2023-08-05T23:26:11.306Z,100290.44
2023-08-05T23:28:38.305Z,100290.50
2023-08-05T23:31:06.065Z,100288.78
2023-08-05T23:33:33.037Z,100270.78
2023-08-05T23:36:00.110Z,100255.19
2023-08-05T23:38:27.415Z,100251.50
2023-08-05T23:40:54.220Z,100248.69
2023-08-05T23:43:21.040Z,100251.88
2023-08-05T23:45:48.991Z,100249.22
2023-08-05T23:48:16.649Z,100249.22
2023-08-05T23:50:43.730Z,100257.75
2023-08-05T23:53:10.781Z,100252.72
2023-08-05T23:55:37.560Z,100254.44
2023-08-05T23:58:04.622Z,100244.84
